Weather at Fairfield Municipal Airport

Public forecast

Using degrees Fahrenheit for public forecast. Weather courtesy of forecast.io.

Closest aviation weather report (METAR) to Fairfield Municipal Airport

Closest report is Flora Municipal Airport, 17.3 nm (32.0 km) N.

2023/09/28 10:15 (retrieved 25 minutes ago)

KFOA 281015Z AUTO 33003KT 1/4SM FG OVC002 15/15 A3001 RMK AO2

Closest aviation forecast (TAF) to Fairfield Municipal Airport

Closest forecast is Mount Vernon Outland Airport, 21.3 nm (39.4 km) W.

2023/09/28 09:21 Ammendment (retrieved 1 hour ago)

TAF AMD KMVN 280918Z 2809/2906 00000KT P6SM SCT070 TEMPO 2809/2812 2SM MIFG FM281500 VRB04KT P6SM FEW050 FM290000 00000KT P6SM SKC